createdAt,value
2022-11-19T00:01:56.077Z,25.97
2022-11-19T00:04:23.500Z,23.47
2022-11-19T00:06:59.988Z,24.23
2022-11-19T00:09:27.042Z,22.57
2022-11-19T00:12:14.119Z,23.93
2022-11-19T00:14:45.262Z,24.53
2022-11-19T00:17:12.237Z,22.67
2022-11-19T00:19:39.595Z,24.27
2022-11-19T00:22:06.988Z,24.40
2022-11-19T00:24:34.434Z,20.53
2022-11-19T00:27:02.014Z,17.63
2022-11-19T00:29:29.550Z,23.90
2022-11-19T00:31:56.876Z,22.73
2022-11-19T00:34:24.588Z,23.57
2022-11-19T00:36:52.005Z,23.00
2022-11-19T00:39:21.097Z,24.20
2022-11-19T00:41:49.277Z,21.90
2022-11-19T00:44:16.735Z,21.73
2022-11-19T00:46:44.153Z,19.40
2022-11-19T00:49:11.592Z,23.90
2022-11-19T00:51:38.729Z,24.20
2022-11-19T00:54:06.175Z,20.67
2022-11-19T00:56:33.597Z,22.53
2022-11-19T00:59:01.514Z,21.57
2022-11-19T01:01:29.234Z,22.00
2022-11-19T01:03:56.730Z,24.43
2022-11-19T01:06:25.432Z,20.83
2022-11-19T01:08:53.393Z,23.80
2022-11-19T01:11:27.331Z,17.13
2022-11-19T01:13:55.000Z,21.10
2022-11-19T01:16:26.949Z,16.87
2022-11-19T01:18:54.430Z,18.17
2022-11-19T01:21:25.310Z,15.80
2022-11-19T01:23:52.893Z,14.03
2022-11-19T01:26:20.657Z,21.17
2022-11-19T01:28:48.404Z,22.23
2022-11-19T01:31:27.215Z,23.17
2022-11-19T01:33:54.605Z,22.07
2022-11-19T01:36:28.046Z,21.23
2022-11-19T01:38:55.668Z,20.77
2022-11-19T01:41:28.779Z,17.77
2022-11-19T01:43:59.327Z,22.17
2022-11-19T01:46:32.063Z,22.67
2022-11-19T01:49:08.595Z,18.73
2022-11-19T01:51:55.843Z,19.63
2022-11-19T01:54:31.146Z,21.37
2022-11-19T01:57:09.073Z,19.70
2022-11-19T01:59:37.730Z,18.17
2022-11-19T02:02:05.156Z,20.13
2022-11-19T02:04:33.087Z,18.60
2022-11-19T02:07:00.295Z,20.30
2022-11-19T02:09:28.356Z,18.67
2022-11-19T02:12:19.378Z,14.00
2022-11-19T02:15:21.879Z,17.97
2022-11-19T02:18:06.956Z,20.03
2022-11-19T02:20:34.356Z,21.83
2022-11-19T02:23:33.417Z,21.83
2022-11-19T02:26:24.917Z,22.27
2022-11-19T02:28:59.893Z,20.80
2022-11-19T02:31:58.187Z,19.17
2022-11-19T02:34:35.904Z,20.23
2022-11-19T02:37:16.521Z,17.13
2022-11-19T02:40:02.622Z,17.03
2022-11-19T02:42:30.015Z,17.13
2022-11-19T02:45:08.916Z,16.00
2022-11-19T02:47:40.670Z,20.70
2022-11-19T02:50:14.799Z,19.17
2022-11-19T02:52:44.466Z,16.60
2022-11-19T02:55:16.432Z,19.47
2022-11-19T02:57:48.594Z,16.37
2022-11-19T03:00:35.130Z,22.00
2022-11-19T03:03:21.186Z,14.33
2022-11-19T03:05:51.927Z,21.70
2022-11-19T03:08:19.651Z,19.13
2022-11-19T03:11:06.138Z,15.70
2022-11-19T03:14:04.300Z,21.87
2022-11-19T03:16:42.188Z,19.40
2022-11-19T03:19:48.136Z,20.10
2022-11-19T03:22:30.117Z,21.23
2022-11-19T03:25:03.390Z,18.80
2022-11-19T03:27:41.426Z,19.97
2022-11-19T03:30:10.160Z,17.83
2022-11-19T03:32:53.235Z,21.60
2022-11-19T03:35:29.677Z,17.63
2022-11-19T03:37:59.958Z,13.40
2022-11-19T03:40:31.119Z,13.77
2022-11-19T03:43:00.596Z,18.30
2022-11-19T03:45:32.527Z,19.00
2022-11-19T03:48:02.395Z,18.60
2022-11-19T03:50:50.455Z,17.80
2022-11-19T03:53:19.052Z,17.03
2022-11-19T03:55:56.630Z,20.23
2022-11-19T03:58:25.338Z,18.63
2022-11-19T04:00:52.903Z,13.97
2022-11-19T04:03:20.326Z,19.47
2022-11-19T04:05:47.722Z,19.60
2022-11-19T04:08:14.764Z,17.10
2022-11-19T04:10:42.253Z,13.07
2022-11-19T04:13:09.285Z,18.03
2022-11-19T04:15:36.720Z,20.47
2022-11-19T04:18:03.837Z,22.33
2022-11-19T04:20:31.199Z,21.33
2022-11-19T04:22:58.618Z,20.73
2022-11-19T04:25:26.042Z,19.80
2022-11-19T04:27:53.623Z,21.30
2022-11-19T04:30:21.080Z,21.10
2022-11-19T04:32:48.201Z,21.00
2022-11-19T04:35:18.163Z,18.00
2022-11-19T04:37:45.715Z,19.87
2022-11-19T04:40:13.391Z,20.97
2022-11-19T04:42:40.911Z,21.47
2022-11-19T04:45:08.689Z,20.57
2022-11-19T04:47:36.129Z,23.37
2022-11-19T04:50:03.569Z,21.40
2022-11-19T04:52:36.338Z,20.70
2022-11-19T04:55:06.801Z,20.53
2022-11-19T04:57:33.883Z,21.30
2022-11-19T05:00:00.883Z,22.50
2022-11-19T05:02:28.284Z,22.27
2022-11-19T05:04:55.713Z,22.07
2022-11-19T05:07:22.802Z,20.63
2022-11-19T05:09:49.853Z,22.87
2022-11-19T05:12:17.323Z,21.93
2022-11-19T05:14:45.650Z,19.80
2022-11-19T05:17:13.434Z,20.03
2022-11-19T05:19:41.373Z,21.27
2022-11-19T05:22:08.804Z,22.00
2022-11-19T05:24:36.223Z,19.57
2022-11-19T05:27:03.982Z,20.43
2022-11-19T05:29:30.977Z,21.40
2022-11-19T05:31:58.375Z,20.93
2022-11-19T05:34:25.757Z,23.50
2022-11-19T05:36:52.767Z,21.80
2022-11-19T05:39:22.229Z,20.90
2022-11-19T05:41:50.518Z,20.20
2022-11-19T05:44:18.153Z,21.40
2022-11-19T05:46:45.591Z,22.07
2022-11-19T05:49:13.018Z,22.00
2022-11-19T05:51:40.462Z,19.60
2022-11-19T05:54:07.901Z,20.43
2022-11-19T05:56:34.910Z,22.10
2022-11-19T05:59:02.332Z,22.07
2022-11-19T06:01:29.995Z,20.97
2022-11-19T06:03:57.271Z,20.80
2022-11-19T06:06:25.483Z,20.53
2022-11-19T06:08:52.877Z,20.57
2022-11-19T06:11:38.465Z,21.23
2022-11-19T06:14:05.587Z,20.33
2022-11-19T06:16:33.098Z,20.37
2022-11-19T06:19:00.571Z,21.33
2022-11-19T06:21:27.980Z,22.67
2022-11-19T06:23:55.409Z,21.30
2022-11-19T06:26:27.501Z,21.57
2022-11-19T06:28:54.951Z,21.33
2022-11-19T06:31:22.528Z,20.50
2022-11-19T06:33:53.444Z,21.47
2022-11-19T06:36:21.202Z,18.73
2022-11-19T06:38:48.342Z,21.20
2022-11-19T06:41:16.094Z,21.67
2022-11-19T06:43:43.639Z,22.27
2022-11-19T06:46:11.732Z,20.03
2022-11-19T06:48:39.320Z,21.57
2022-11-19T06:51:07.421Z,20.07
2022-11-19T06:53:34.939Z,20.47
2022-11-19T06:56:04.547Z,20.37
2022-11-19T06:58:32.029Z,21.53
2022-11-19T07:00:59.153Z,20.90
2022-11-19T07:03:26.799Z,21.00
2022-11-19T07:06:02.574Z,19.70
2022-11-19T07:08:33.633Z,21.40
2022-11-19T07:11:01.891Z,19.77
2022-11-19T07:13:49.267Z,18.80
2022-11-19T07:16:16.677Z,20.83
2022-11-19T07:18:44.121Z,21.10
2022-11-19T07:21:11.117Z,21.00
2022-11-19T07:23:38.556Z,19.67
2022-11-19T07:26:05.702Z,20.80
2022-11-19T07:28:34.829Z,18.97
2022-11-19T07:31:06.066Z,20.33
2022-11-19T07:33:33.641Z,20.97
2022-11-19T07:36:01.191Z,22.17
2022-11-19T07:38:32.716Z,21.03
2022-11-19T07:41:23.133Z,20.27
2022-11-19T07:43:50.642Z,20.07
2022-11-19T07:46:18.122Z,19.13
2022-11-19T07:48:45.101Z,20.83
2022-11-19T07:51:12.583Z,20.53
2022-11-19T07:53:40.098Z,17.60
2022-11-19T07:56:07.703Z,19.67
2022-11-19T07:58:35.358Z,19.17
2022-11-19T08:01:18.375Z,19.30
2022-11-19T08:03:49.603Z,18.30
2022-11-19T08:06:19.506Z,19.50
2022-11-19T08:08:47.302Z,17.63
2022-11-19T08:11:16.696Z,14.27
2022-11-19T08:13:44.324Z,14.13
2022-11-19T08:16:14.006Z,18.87
2022-11-19T08:18:41.442Z,17.50
2022-11-19T08:21:11.208Z,15.90
2022-11-19T08:23:39.499Z,15.37
2022-11-19T08:26:07.602Z,16.83
2022-11-19T08:28:35.047Z,17.97
2022-11-19T08:31:09.349Z,16.90
2022-11-19T08:33:36.937Z,16.40
2022-11-19T08:36:05.218Z,15.83
2022-11-19T08:38:38.377Z,16.93
2022-11-19T08:41:35.854Z,15.00
2022-11-19T08:44:18.085Z,15.90
2022-11-19T08:46:45.969Z,14.40
2022-11-19T08:49:24.447Z,15.70
2022-11-19T08:51:52.275Z,15.33
2022-11-19T08:54:20.005Z,15.77
2022-11-19T08:56:48.030Z,14.27
2022-11-19T08:59:15.151Z,16.38
2022-11-19T09:01:42.761Z,13.43
2022-11-19T09:04:10.742Z,14.67
2022-11-19T09:06:37.906Z,13.40
2022-11-19T09:09:05.235Z,13.70
2022-11-19T09:11:32.979Z,12.23
2022-11-19T09:14:01.233Z,12.60
2022-11-19T09:16:29.105Z,12.83
2022-11-19T09:18:56.463Z,13.03
2022-11-19T09:21:23.566Z,10.17
2022-11-19T09:23:51.225Z,12.93
2022-11-19T09:26:19.487Z,13.23
2022-11-19T09:28:48.080Z,13.43
2022-11-19T09:31:19.879Z,13.27
2022-11-19T09:33:49.861Z,12.67
2022-11-19T09:36:18.646Z,12.70
2022-11-19T09:42:19.079Z,13.33
2022-11-19T09:44:58.322Z,12.10
2022-11-19T09:47:25.741Z,11.13
2022-11-19T09:50:19.443Z,10.60
2022-11-19T09:52:49.571Z,11.63
2022-11-19T09:55:34.560Z,11.37
2022-11-19T09:58:07.306Z,11.20
2022-11-19T10:00:34.758Z,9.10
2022-11-19T10:03:12.026Z,10.60
2022-11-19T10:05:56.909Z,11.20
2022-11-19T10:09:03.090Z,11.23
2022-11-19T10:11:48.839Z,11.50
2022-11-19T10:14:30.860Z,10.57
2022-11-19T10:17:38.887Z,8.53
2022-11-19T10:20:14.131Z,10.03
2022-11-19T10:23:08.634Z,10.83
2022-11-19T10:25:45.465Z,10.07
2022-11-19T10:28:15.882Z,10.60
2022-11-19T10:30:49.152Z,10.33
2022-11-19T10:33:25.015Z,10.23
2022-11-19T10:35:57.094Z,9.90
2022-11-19T10:39:03.888Z,9.27
2022-11-19T10:41:42.299Z,8.77
2022-11-19T10:44:38.100Z,8.80
2022-11-19T10:47:11.947Z,7.40
2022-11-19T10:49:42.260Z,8.67
2022-11-19T10:52:19.039Z,9.93
2022-11-19T10:54:47.750Z,8.97
2022-11-19T10:57:18.774Z,9.87
2022-11-19T10:59:47.664Z,9.20
2022-11-19T11:02:31.527Z,8.53
2022-11-19T11:05:24.642Z,7.37
2022-11-19T11:07:59.022Z,7.00
2022-11-19T11:10:26.415Z,8.17
2022-11-19T11:13:13.102Z,7.33
2022-11-19T11:15:48.212Z,8.73
2022-11-19T11:18:15.963Z,8.13
2022-11-19T11:20:49.868Z,8.60
2022-11-19T11:23:20.652Z,7.13
2022-11-19T11:26:11.773Z,8.67
2022-11-19T11:29:07.943Z,7.50
2022-11-19T11:31:48.029Z,8.47
2022-11-19T11:34:15.618Z,8.10
2022-11-19T11:36:43.834Z,7.17
2022-11-19T11:39:27.977Z,6.87
2022-11-19T11:42:17.416Z,6.30
2022-11-19T11:44:55.941Z,6.73
2022-11-19T11:47:30.227Z,7.43
2022-11-19T11:50:20.104Z,7.47
2022-11-19T11:52:53.053Z,6.97
2022-11-19T11:55:25.957Z,7.23
2022-11-19T11:58:05.007Z,6.67
2022-11-19T12:00:42.805Z,7.03
2022-11-19T12:03:18.919Z,7.37
2022-11-19T12:06:15.344Z,6.87
2022-11-19T12:09:01.187Z,7.43
2022-11-19T12:11:57.938Z,6.10
2022-11-19T12:14:37.214Z,7.87
2022-11-19T12:17:23.090Z,6.50
2022-11-19T12:20:01.985Z,5.57
2022-11-19T12:22:45.587Z,6.00
2022-11-19T12:25:26.102Z,5.20
2022-11-19T12:28:19.790Z,5.90
2022-11-19T12:31:10.907Z,6.33
2022-11-19T12:34:10.648Z,6.80
2022-11-19T12:36:49.632Z,6.83
2022-11-19T12:39:44.357Z,6.73
2022-11-19T12:42:19.984Z,7.93
2022-11-19T12:45:11.430Z,6.20
2022-11-19T12:47:56.935Z,7.10
2022-11-19T12:51:00.553Z,8.17
2022-11-19T12:53:27.897Z,8.03
2022-11-19T12:56:16.341Z,7.57
2022-11-19T12:59:01.244Z,8.07
2022-11-19T13:01:34.227Z,8.13
2022-11-19T13:04:32.227Z,7.83
2022-11-19T13:07:08.718Z,8.73
2022-11-19T13:09:45.072Z,7.87
2022-11-19T13:12:16.269Z,8.47
2022-11-19T13:14:55.208Z,9.27
2022-11-19T13:17:29.560Z,8.80
2022-11-19T13:20:04.296Z,8.60
2022-11-19T13:22:42.524Z,8.63
2022-11-19T13:25:22.178Z,8.20
2022-11-19T13:27:51.735Z,8.60
2022-11-19T13:30:31.257Z,9.00
2022-11-19T13:33:00.933Z,8.47
2022-11-19T13:35:54.027Z,8.33
2022-11-19T13:38:28.294Z,7.57
2022-11-19T13:41:13.121Z,8.70
2022-11-19T13:43:59.413Z,8.70
2022-11-19T13:46:33.726Z,9.10
2022-11-19T13:49:51.609Z,9.40
2022-11-19T13:52:18.523Z,8.10
2022-11-19T13:54:46.173Z,8.60
2022-11-19T13:57:36.810Z,8.53
2022-11-19T14:00:04.132Z,8.00
2022-11-19T14:02:39.032Z,7.63
2022-11-19T14:05:17.968Z,7.47
2022-11-19T14:08:12.448Z,7.90
2022-11-19T14:10:39.999Z,7.57
2022-11-19T14:13:07.600Z,6.03
2022-11-19T14:16:23.511Z,6.23
2022-11-19T14:19:13.017Z,6.30
2022-11-19T14:22:14.953Z,6.53
2022-11-19T14:25:06.418Z,7.17
2022-11-19T14:27:34.640Z,7.50
2022-11-19T14:30:09.639Z,6.43
2022-11-19T14:32:37.093Z,7.73
2022-11-19T14:35:05.079Z,6.37
2022-11-19T14:37:43.171Z,7.07
2022-11-19T14:40:13.344Z,7.83
2022-11-19T14:43:34.702Z,6.77
2022-11-19T14:46:04.690Z,7.43
2022-11-19T14:48:35.654Z,7.70
2022-11-19T14:51:11.335Z,7.40
2022-11-19T14:53:53.192Z,6.67
2022-11-19T14:56:23.620Z,7.87
2022-11-19T14:59:07.273Z,7.83
2022-11-19T15:01:35.154Z,7.23
2022-11-19T15:04:07.452Z,8.60
2022-11-19T15:06:36.556Z,8.10
2022-11-19T15:09:06.157Z,9.07
2022-11-19T15:11:59.223Z,9.83
2022-11-19T15:14:29.006Z,8.57
2022-11-19T15:16:58.942Z,9.20
2022-11-19T15:19:26.949Z,8.83
2022-11-19T15:21:54.281Z,10.30
2022-11-19T15:24:39.983Z,9.00
2022-11-19T15:27:27.052Z,11.75
2022-11-19T15:30:17.266Z,9.90
2022-11-19T15:33:22.948Z,10.50
2022-11-19T15:36:27.342Z,9.77
2022-11-19T15:39:15.488Z,10.50
2022-11-19T15:42:00.271Z,21.67
2022-11-19T15:44:35.546Z,11.83
2022-11-19T15:47:06.954Z,12.00
2022-11-19T15:49:35.371Z,11.37
2022-11-19T15:52:27.233Z,11.47
2022-11-19T15:55:11.290Z,11.90
2022-11-19T15:57:43.851Z,12.70
2022-11-19T16:00:19.670Z,12.00
2022-11-19T16:02:49.523Z,14.03
2022-11-19T16:05:30.051Z,13.53
2022-11-19T16:07:59.819Z,14.07
2022-11-19T16:10:32.898Z,12.33
2022-11-19T16:13:20.630Z,13.37
2022-11-19T16:16:11.045Z,13.50
2022-11-19T16:18:48.817Z,14.27
2022-11-19T16:21:31.173Z,15.00
2022-11-19T16:24:18.980Z,15.93
2022-11-19T16:26:46.481Z,16.30
2022-11-19T16:29:22.123Z,14.97
2022-11-19T16:32:02.202Z,17.43
2022-11-19T16:34:31.265Z,15.30
2022-11-19T16:36:58.638Z,13.90
2022-11-19T16:39:27.915Z,14.00
2022-11-19T16:42:19.028Z,13.60
2022-11-19T16:44:47.593Z,12.67
2022-11-19T16:47:26.658Z,14.20
2022-11-19T16:49:58.338Z,13.83
2022-11-19T16:52:34.447Z,14.40
2022-11-19T16:55:02.393Z,15.27
2022-11-19T16:57:30.413Z,15.60
2022-11-19T17:00:02.970Z,14.27
2022-11-19T17:02:39.246Z,14.67
2022-11-19T17:05:12.795Z,14.60
2022-11-19T17:07:40.556Z,16.47
2022-11-19T17:10:13.522Z,16.53
2022-11-19T17:12:59.693Z,18.23
2022-11-19T17:15:41.640Z,15.60
2022-11-19T17:18:34.742Z,16.17
2022-11-19T17:21:25.789Z,17.07
2022-11-19T17:23:53.615Z,15.33
2022-11-19T17:26:27.242Z,14.80
2022-11-19T17:29:09.102Z,16.33
2022-11-19T17:31:36.560Z,16.70
2022-11-19T17:34:19.206Z,19.60
2022-11-19T17:36:46.734Z,20.30
2022-11-19T17:39:14.808Z,17.77
2022-11-19T17:42:01.866Z,18.73
2022-11-19T17:44:36.619Z,17.33
2022-11-19T17:47:21.191Z,15.70
2022-11-19T17:49:49.639Z,17.53
2022-11-19T17:52:31.026Z,17.83
2022-11-19T17:55:08.962Z,18.13
2022-11-19T17:57:42.225Z,18.20
2022-11-19T18:00:10.161Z,18.20
2022-11-19T18:02:37.461Z,15.03
2022-11-19T18:05:15.166Z,17.47
2022-11-19T18:07:42.545Z,15.90
2022-11-19T18:10:10.141Z,16.17
2022-11-19T18:12:37.429Z,16.93
2022-11-19T18:15:04.938Z,16.40
2022-11-19T18:17:32.243Z,16.67
2022-11-19T18:19:59.585Z,18.07
2022-11-19T18:22:26.906Z,17.73
2022-11-19T18:24:54.280Z,18.43
2022-11-19T18:27:21.668Z,15.60
2022-11-19T18:29:48.957Z,17.03
2022-11-19T18:32:16.960Z,16.57
2022-11-19T18:34:46.027Z,17.57
2022-11-19T18:37:13.473Z,17.83
2022-11-19T18:39:41.042Z,18.07
2022-11-19T18:42:11.366Z,18.47
2022-11-19T18:44:38.839Z,26.67
2022-11-19T18:47:10.575Z,20.33
2022-11-19T18:49:38.472Z,17.50
2022-11-19T18:52:08.043Z,25.15
2022-11-19T18:54:35.265Z,21.77
2022-11-19T18:57:02.573Z,20.03
2022-11-19T18:59:30.054Z,18.07
2022-11-19T19:01:57.397Z,17.10
2022-11-19T19:04:24.776Z,19.07
2022-11-19T19:06:53.349Z,19.13
2022-11-19T19:09:21.517Z,18.93
2022-11-19T19:12:13.078Z,16.93
2022-11-19T19:14:40.991Z,17.97
2022-11-19T19:17:08.235Z,18.17
2022-11-19T19:19:36.029Z,17.60
2022-11-19T19:22:03.542Z,17.40
2022-11-19T19:24:32.336Z,18.87
2022-11-19T19:27:00.872Z,21.27
2022-11-19T19:29:28.181Z,20.57
2022-11-19T19:31:55.418Z,17.47
2022-11-19T19:34:22.642Z,18.73
2022-11-19T19:36:53.387Z,17.40
2022-11-19T19:39:21.513Z,17.57
2022-11-19T19:41:49.311Z,16.63
2022-11-19T19:44:16.788Z,18.20
2022-11-19T19:46:44.158Z,19.13
2022-11-19T19:49:11.455Z,21.00
2022-11-19T19:51:38.734Z,19.77
2022-11-19T19:54:06.048Z,18.07
2022-11-19T19:56:33.804Z,22.37
2022-11-19T19:59:01.467Z,24.43
2022-11-19T20:01:34.461Z,27.77
2022-11-19T20:04:09.297Z,23.20
2022-11-19T20:06:39.032Z,23.70
2022-11-19T20:09:08.966Z,23.30
2022-11-19T20:11:37.458Z,24.00
2022-11-19T20:14:04.792Z,24.50
2022-11-19T20:16:33.839Z,22.63
2022-11-19T20:19:01.716Z,22.50
2022-11-19T20:21:34.318Z,23.67
2022-11-19T20:24:10.327Z,22.80
2022-11-19T20:26:39.676Z,22.33
2022-11-19T20:29:07.322Z,22.73
2022-11-19T20:31:34.868Z,25.60
2022-11-19T20:34:04.555Z,24.10
2022-11-19T20:36:34.650Z,24.80
2022-11-19T20:39:02.204Z,28.30
2022-11-19T20:41:48.589Z,26.33
2022-11-19T20:44:19.914Z,26.17
2022-11-19T20:46:47.669Z,26.10
2022-11-19T20:49:17.161Z,27.67
2022-11-19T20:51:46.018Z,27.87
2022-11-19T20:54:13.442Z,27.63
2022-11-19T20:56:41.179Z,24.13
2022-11-19T20:59:08.803Z,26.13
2022-11-19T21:01:36.510Z,27.77
2022-11-19T21:04:04.171Z,29.23
2022-11-19T21:06:31.558Z,24.17
2022-11-19T21:08:58.975Z,23.40
2022-11-19T21:11:26.321Z,23.13
2022-11-19T21:13:53.649Z,21.47
2022-11-19T21:16:23.385Z,22.80
2022-11-19T21:18:51.269Z,22.03
2022-11-19T21:21:19.861Z,19.17
2022-11-19T21:23:47.336Z,18.83
2022-11-19T21:26:19.878Z,19.03
2022-11-19T21:28:51.449Z,18.77
2022-11-19T21:31:21.854Z,17.63
2022-11-19T21:33:49.022Z,17.53
2022-11-19T21:36:16.352Z,18.57
2022-11-19T21:38:43.617Z,18.90
2022-11-19T21:41:10.923Z,17.57
2022-11-19T21:43:38.152Z,17.77
2022-11-19T21:46:08.226Z,19.90
2022-11-19T21:48:37.936Z,19.20
2022-11-19T21:51:08.706Z,19.30
2022-11-19T21:53:36.348Z,21.00
2022-11-19T21:56:03.746Z,21.10
2022-11-19T21:58:31.053Z,29.07
2022-11-19T22:01:02.640Z,27.37
2022-11-19T22:03:32.320Z,39.03
2022-11-19T22:06:05.624Z,34.97
2022-11-19T22:08:34.411Z,50.88
2022-11-19T22:11:21.823Z,38.87
2022-11-19T22:13:49.193Z,33.67
2022-11-19T22:16:16.661Z,38.95
2022-11-19T22:18:43.731Z,31.47
2022-11-19T22:21:10.853Z,29.67
2022-11-19T22:23:38.240Z,29.60
2022-11-19T22:26:07.409Z,29.13
2022-11-19T22:28:34.725Z,28.33
2022-11-19T22:31:02.239Z,32.43
2022-11-19T22:33:40.029Z,31.40
2022-11-19T22:36:10.298Z,28.83
2022-11-19T22:38:38.968Z,28.33
2022-11-19T22:41:13.962Z,23.37
2022-11-19T22:43:41.900Z,24.43
2022-11-19T22:46:10.614Z,24.50
2022-11-19T22:48:38.063Z,28.10
2022-11-19T22:51:07.533Z,29.07
2022-11-19T22:53:37.644Z,28.47
2022-11-19T22:56:07.824Z,26.20
2022-11-19T22:58:35.834Z,26.63
2022-11-19T23:01:04.027Z,27.10
2022-11-19T23:03:31.020Z,27.63
2022-11-19T23:05:59.251Z,24.43
2022-11-19T23:08:26.628Z,25.23
2022-11-19T23:11:01.990Z,26.63
2022-11-19T23:13:33.985Z,28.20
2022-11-19T23:16:13.036Z,25.27
2022-11-19T23:18:42.723Z,26.13
2022-11-19T23:21:18.635Z,25.13
2022-11-19T23:23:45.978Z,24.60
2022-11-19T23:26:14.738Z,23.33
2022-11-19T23:28:42.435Z,25.53
2022-11-19T23:31:13.782Z,25.07
2022-11-19T23:33:41.158Z,27.13
2022-11-19T23:36:11.930Z,26.13
2022-11-19T23:38:39.722Z,26.20
2022-11-19T23:41:09.644Z,25.77
2022-11-19T23:43:37.242Z,26.73
2022-11-19T23:46:06.135Z,25.63
2022-11-19T23:48:33.772Z,26.17
2022-11-19T23:51:24.580Z,25.83
2022-11-19T23:53:52.292Z,25.13
2022-11-19T23:56:21.416Z,26.87
2022-11-19T23:58:48.807Z,27.13
